createdAt,value
2018-10-12T00:02:14.965Z,16.87
2018-10-12T00:04:42.536Z,17.20
2018-10-12T00:07:10.384Z,18.43
2018-10-12T00:09:38.058Z,17.17
2018-10-12T00:12:05.848Z,16.33
2018-10-12T00:14:33.636Z,17.53
2018-10-12T00:17:01.369Z,18.37
2018-10-12T00:19:28.975Z,18.37
2018-10-12T00:21:56.592Z,17.67
2018-10-12T00:24:24.372Z,18.40
2018-10-12T00:26:52.059Z,18.67
2018-10-12T00:29:19.741Z,18.17
2018-10-12T00:31:47.566Z,19.97
2018-10-12T00:34:15.232Z,20.57
2018-10-12T00:36:43.247Z,20.83
2018-10-12T00:39:10.885Z,17.87
2018-10-12T00:41:38.626Z,16.63
2018-10-12T00:44:06.652Z,16.37
2018-10-12T00:46:35.257Z,17.80
2018-10-12T00:49:02.868Z,19.90
2018-10-12T00:51:30.834Z,18.50
2018-10-12T00:53:58.699Z,16.23
2018-10-12T00:56:26.283Z,18.30
2018-10-12T00:58:53.929Z,15.30
2018-10-12T01:01:21.566Z,16.33
2018-10-12T01:03:49.929Z,16.00
2018-10-12T01:06:17.945Z,16.13
2018-10-12T01:08:45.619Z,17.10
2018-10-12T01:11:13.205Z,17.07
2018-10-12T01:13:40.991Z,15.70
2018-10-12T01:16:08.635Z,18.43
2018-10-12T01:18:36.452Z,17.60
2018-10-12T01:21:04.124Z,17.90
2018-10-12T01:23:31.809Z,17.63
2018-10-12T01:26:00.399Z,16.70
2018-10-12T01:28:28.207Z,15.07
2018-10-12T01:30:55.772Z,15.40
2018-10-12T01:33:23.453Z,16.33
2018-10-12T01:35:51.102Z,17.30
2018-10-12T01:38:18.748Z,16.23
2018-10-12T01:40:46.732Z,19.07
2018-10-12T01:43:14.400Z,19.73
2018-10-12T01:45:42.100Z,20.13
2018-10-12T01:48:09.886Z,18.27
2018-10-12T01:50:37.498Z,18.70
2018-10-12T01:53:05.422Z,18.47
2018-10-12T01:55:33.046Z,18.97
2018-10-12T01:58:00.737Z,19.63
2018-10-12T02:00:28.682Z,17.67
2018-10-12T02:02:56.997Z,17.73
2018-10-12T02:05:24.706Z,18.93
2018-10-12T02:07:52.340Z,17.77
2018-10-12T02:10:20.062Z,20.40
2018-10-12T02:12:47.779Z,18.70
2018-10-12T02:15:15.782Z,17.67
2018-10-12T02:17:43.494Z,16.70
2018-10-12T02:20:11.679Z,17.63
2018-10-12T02:22:39.363Z,20.57
2018-10-12T02:25:07.234Z,16.40
2018-10-12T02:27:35.841Z,16.70
2018-10-12T02:30:04.436Z,17.67
2018-10-12T02:32:33.045Z,18.17
2018-10-12T02:35:00.976Z,18.07
2018-10-12T02:37:28.695Z,19.97
2018-10-12T02:39:56.452Z,17.23
2018-10-12T02:42:24.118Z,20.03
2018-10-12T02:44:51.706Z,17.57
2018-10-12T02:47:19.436Z,18.13
2018-10-12T02:49:47.173Z,18.63
2018-10-12T02:52:15.211Z,18.03
2018-10-12T02:54:42.790Z,18.73
2018-10-12T02:57:10.504Z,17.43
2018-10-12T02:59:38.204Z,21.80
2018-10-12T03:02:07.097Z,18.83
2018-10-12T03:04:34.858Z,18.30
2018-10-12T03:07:02.670Z,18.73
2018-10-12T03:09:30.693Z,20.10
2018-10-12T03:11:58.523Z,18.50
2018-10-12T03:14:26.308Z,18.53
2018-10-12T03:16:54.065Z,19.10
2018-10-12T03:19:21.714Z,18.53
2018-10-12T03:21:49.416Z,19.03
2018-10-12T03:24:17.107Z,17.73
2018-10-12T03:26:44.823Z,18.63
2018-10-12T03:29:12.609Z,19.20
2018-10-12T03:31:40.589Z,19.63
2018-10-12T03:34:08.150Z,18.07
2018-10-12T03:36:35.865Z,20.53
2018-10-12T03:39:04.855Z,19.77
2018-10-12T03:41:32.513Z,19.33
2018-10-12T03:44:00.228Z,20.90
2018-10-12T03:46:27.966Z,18.47
2018-10-12T03:48:55.629Z,17.80
2018-10-12T03:51:23.358Z,17.17
2018-10-12T03:53:59.037Z,19.33
2018-10-12T03:56:28.311Z,21.50
2018-10-12T03:58:56.029Z,18.83
2018-10-12T04:01:23.571Z,19.93
2018-10-12T04:03:51.243Z,19.23
2018-10-12T04:06:18.969Z,20.00
2018-10-12T04:08:46.645Z,18.43
2018-10-12T04:11:14.303Z,22.87
2018-10-12T04:13:41.858Z,20.77
2018-10-12T04:16:10.077Z,20.10
2018-10-12T04:18:37.806Z,20.63
2018-10-12T04:21:05.472Z,21.20
2018-10-12T04:23:33.113Z,21.63
2018-10-12T04:26:00.863Z,22.70
2018-10-12T04:28:28.811Z,20.50
2018-10-12T04:30:56.538Z,19.60
2018-10-12T04:33:24.335Z,20.73
2018-10-12T04:35:51.986Z,20.50
2018-10-12T04:38:19.766Z,20.43
2018-10-12T04:41:00.130Z,19.77
2018-10-12T04:43:28.294Z,19.90
2018-10-12T04:45:56.500Z,19.33
2018-10-12T04:48:24.429Z,19.23
2018-10-12T04:50:52.490Z,19.83
2018-10-12T04:53:21.418Z,23.67
2018-10-12T04:55:49.655Z,18.37
2018-10-12T04:58:17.898Z,20.97
2018-10-12T05:00:45.732Z,19.57
2018-10-12T05:03:13.701Z,19.30
2018-10-12T05:05:42.190Z,19.87
2018-10-12T05:44:59.193Z,21.43
2018-10-12T05:47:28.087Z,21.20
2018-10-12T05:50:02.666Z,23.80
2018-10-12T05:55:09.581Z,18.70
2018-10-12T05:57:41.195Z,18.03
2018-10-12T06:00:10.303Z,17.90
2018-10-12T06:02:38.652Z,17.93
2018-10-12T06:05:07.470Z,17.37
2018-10-12T06:07:37.084Z,17.17
2018-10-12T06:10:05.514Z,18.00
2018-10-12T06:12:38.594Z,19.17
2018-10-12T06:15:07.691Z,16.53
2018-10-12T06:17:36.209Z,17.63
2018-10-12T06:20:05.464Z,17.00
2018-10-12T06:22:40.585Z,16.17
2018-10-12T06:25:10.723Z,16.37
2018-10-12T06:27:39.980Z,19.37
2018-10-12T06:30:08.975Z,17.63
2018-10-12T06:32:38.502Z,15.80
2018-10-12T06:35:06.941Z,15.93
2018-10-12T06:37:35.439Z,18.23
2018-10-12T06:42:41.219Z,17.77
2018-10-12T06:45:09.820Z,19.60
2018-10-12T06:51:33.809Z,18.67
2018-10-12T06:57:10.422Z,20.50
2018-10-12T06:59:41.567Z,14.07
2018-10-12T07:02:13.901Z,13.00
2018-10-12T07:04:51.348Z,12.87
2018-10-12T07:07:33.223Z,13.25
2018-10-12T07:13:02.900Z,13.00
2018-10-12T07:15:34.719Z,12.57
2018-10-12T07:18:33.432Z,11.20
2018-10-12T07:21:01.922Z,12.55
2018-10-12T07:26:22.808Z,12.55
2018-10-12T07:28:50.899Z,13.03
2018-10-12T07:31:19.038Z,12.27
2018-10-12T07:33:47.506Z,14.83
2018-10-12T07:36:17.659Z,17.20
2018-10-12T07:38:46.271Z,12.37
2018-10-12T07:41:17.970Z,11.60
2018-10-12T07:43:48.220Z,12.83
2018-10-12T07:46:16.591Z,12.20
2018-10-12T07:48:45.812Z,12.10
2018-10-12T07:51:14.511Z,13.13
2018-10-12T07:53:43.971Z,13.25
2018-10-12T07:56:17.535Z,12.60
2018-10-12T07:58:47.394Z,12.70
2018-10-12T08:01:18.119Z,14.13
2018-10-12T08:03:47.337Z,11.97
2018-10-12T08:08:54.246Z,11.75
2018-10-12T08:11:26.050Z,11.18
2018-10-12T08:13:56.189Z,12.28
2018-10-12T08:16:26.830Z,15.13
2018-10-12T08:18:55.416Z,16.20
2018-10-12T08:24:00.677Z,11.33
2018-10-12T08:26:31.302Z,15.23
2018-10-12T08:29:01.749Z,11.60
2018-10-12T08:31:30.940Z,11.87
2018-10-12T08:33:59.297Z,14.27
2018-10-12T08:36:29.551Z,11.13
2018-10-12T08:38:58.509Z,13.63
2018-10-12T08:41:27.398Z,13.30
2018-10-12T08:43:56.477Z,11.50
2018-10-12T08:46:25.129Z,12.07
2018-10-12T08:48:53.452Z,11.77
2018-10-12T08:51:23.692Z,13.50
2018-10-12T08:53:51.759Z,14.97
2018-10-12T08:56:21.071Z,13.00
2018-10-12T08:58:49.817Z,11.53
2018-10-12T09:01:18.971Z,17.97
2018-10-12T09:03:47.039Z,11.40
2018-10-12T09:06:15.660Z,11.63
2018-10-12T09:08:44.567Z,15.53
2018-10-12T09:11:14.306Z,12.73
2018-10-12T09:13:42.384Z,10.68
2018-10-12T09:16:10.731Z,9.37
2018-10-12T09:18:44.510Z,10.50
2018-10-12T09:21:15.520Z,10.18
2018-10-12T09:23:45.493Z,9.75
2018-10-12T09:26:14.490Z,8.40
2018-10-12T09:28:43.910Z,10.18
2018-10-12T09:31:18.410Z,9.30
2018-10-12T09:33:48.269Z,8.65
2018-10-12T09:36:16.592Z,8.95
2018-10-12T09:38:45.770Z,8.95
2018-10-12T09:41:14.870Z,10.30
2018-10-12T09:43:46.633Z,12.28
2018-10-12T09:46:14.862Z,9.40
2018-10-12T09:48:44.767Z,10.65
2018-10-12T09:51:14.032Z,9.05
2018-10-12T09:53:43.007Z,10.72
2018-10-12T09:56:11.716Z,8.90
2018-10-12T09:58:41.524Z,9.00
2018-10-12T10:01:17.798Z,8.43
2018-10-12T10:03:52.590Z,8.30
2018-10-12T10:06:20.957Z,8.85
2018-10-12T10:08:50.925Z,7.83
2018-10-12T10:11:19.178Z,7.37
2018-10-12T10:13:51.098Z,7.90
2018-10-12T10:16:19.604Z,7.83
2018-10-12T10:18:48.296Z,7.60
2018-10-12T10:21:16.809Z,7.83
2018-10-12T10:23:44.813Z,7.13
2018-10-12T10:26:13.086Z,7.63
2018-10-12T10:28:41.218Z,8.83
2018-10-12T10:31:10.961Z,5.70
2018-10-12T10:33:40.116Z,8.13
2018-10-12T10:36:22.243Z,9.67
2018-10-12T10:38:56.810Z,6.90
2018-10-12T10:41:25.175Z,5.13
2018-10-12T10:43:53.448Z,5.27
2018-10-12T10:46:22.554Z,7.93
2018-10-12T10:48:50.966Z,7.13
2018-10-12T10:51:19.459Z,7.33
2018-10-12T10:54:21.117Z,7.77
2018-10-12T10:56:49.211Z,5.40
2018-10-12T10:59:17.949Z,5.30
2018-10-12T11:04:42.132Z,4.77
2018-10-12T11:07:25.911Z,8.90
2018-10-12T11:09:54.789Z,6.00
2018-10-12T11:12:25.979Z,9.37
2018-10-12T11:14:58.891Z,4.63
2018-10-12T11:17:27.321Z,5.47
2018-10-12T11:20:03.380Z,7.00
2018-10-12T11:22:32.030Z,14.13
2018-10-12T11:25:08.190Z,5.10
2018-10-12T11:27:38.449Z,5.20
2018-10-12T11:30:08.377Z,4.67
2018-10-12T11:32:39.167Z,4.83
2018-10-12T20:13:54.978Z,7.43
2018-10-12T20:18:59.647Z,7.57
2018-10-12T20:21:33.042Z,9.50
2018-10-12T20:24:02.556Z,10.13
2018-10-12T20:26:30.483Z,8.60
2018-10-12T20:28:58.209Z,9.53
2018-10-12T20:31:26.066Z,6.70
2018-10-12T20:33:53.923Z,6.43
2018-10-12T20:36:21.542Z,8.07
2018-10-12T20:38:49.394Z,8.87
2018-10-12T20:41:17.112Z,8.40
2018-10-12T20:43:45.108Z,6.63
2018-10-12T20:46:13.052Z,8.43
2018-10-12T20:48:40.707Z,7.13
2018-10-12T20:51:08.972Z,10.80
2018-10-12T20:53:36.742Z,7.07
2018-10-12T20:56:04.624Z,7.13
2018-10-12T20:58:32.774Z,7.30
2018-10-12T21:01:00.648Z,7.27
2018-10-12T21:03:28.365Z,6.70
2018-10-12T21:05:56.136Z,8.23
2018-10-12T21:08:24.049Z,7.50
2018-10-12T21:10:51.641Z,8.03
2018-10-12T21:13:20.145Z,8.23
2018-10-12T21:15:47.819Z,13.10
2018-10-12T21:18:16.026Z,9.97
2018-10-12T21:20:43.638Z,7.90
2018-10-12T21:23:11.323Z,9.83
2018-10-12T21:25:39.262Z,8.37
2018-10-12T21:28:06.832Z,7.50
2018-10-12T21:30:34.580Z,8.20
2018-10-12T21:33:04.207Z,7.67
2018-10-12T21:35:32.129Z,7.47
2018-10-12T21:38:04.146Z,10.33
2018-10-12T21:40:32.063Z,6.60
2018-10-12T21:43:01.857Z,10.50
2018-10-12T21:45:34.014Z,7.00
2018-10-12T21:48:03.058Z,8.87
2018-10-12T21:50:32.175Z,11.03
2018-10-12T21:53:01.200Z,12.67
2018-10-12T21:55:31.535Z,8.50
2018-10-12T21:58:01.867Z,8.57
2018-10-12T22:00:29.766Z,7.93
2018-10-12T22:02:57.630Z,12.10
2018-10-12T22:05:25.453Z,9.70
2018-10-12T22:07:53.511Z,7.00
2018-10-12T22:10:21.381Z,6.90
2018-10-12T22:12:49.077Z,5.83
2018-10-12T22:15:16.651Z,6.27
2018-10-12T22:17:44.433Z,7.93
2018-10-12T22:20:12.260Z,6.47
2018-10-12T22:22:40.540Z,6.13
2018-10-12T22:25:08.580Z,5.47
2018-10-12T22:27:37.359Z,5.67
2018-10-12T22:30:06.319Z,8.10
2018-10-12T22:32:33.952Z,5.70
2018-10-12T22:35:01.645Z,6.07
2018-10-12T22:37:29.327Z,6.00
2018-10-12T22:39:56.897Z,7.47
2018-10-12T22:42:24.829Z,8.77
2018-10-12T22:44:53.576Z,6.60
2018-10-12T22:47:21.769Z,7.07
2018-10-12T22:49:50.031Z,8.83
2018-10-12T22:52:18.560Z,6.53
2018-10-12T22:54:47.196Z,7.53
2018-10-12T22:57:14.956Z,6.20
2018-10-12T22:59:42.705Z,8.37
2018-10-12T23:02:11.540Z,8.77
2018-10-12T23:04:39.338Z,7.10
2018-10-12T23:07:07.271Z,9.43
2018-10-12T23:09:35.175Z,7.43
2018-10-12T23:12:03.084Z,7.07
2018-10-12T23:14:30.852Z,7.60
2018-10-12T23:16:58.719Z,7.40
2018-10-12T23:19:26.527Z,7.97
2018-10-12T23:21:54.323Z,5.63
2018-10-12T23:24:22.372Z,6.73
2018-10-12T23:26:50.094Z,8.10
2018-10-12T23:29:17.979Z,9.77
2018-10-12T23:31:45.893Z,5.40
2018-10-12T23:34:13.677Z,6.80
2018-10-12T23:36:41.482Z,6.50
2018-10-12T23:39:10.318Z,8.17
2018-10-12T23:41:38.900Z,7.10
2018-10-12T23:44:06.862Z,8.63
2018-10-12T23:46:34.598Z,9.27
2018-10-12T23:49:04.464Z,9.03
2018-10-12T23:51:32.281Z,8.47
2018-10-12T23:54:00.033Z,8.53
2018-10-12T23:56:28.055Z,9.57
2018-10-12T23:58:56.075Z,7.93
